createdAt,value
2019-02-18T00:02:04.762Z,99187.00
2019-02-18T00:04:34.324Z,99184.00
2019-02-18T00:07:13.738Z,99185.99
2019-02-18T00:09:35.218Z,99182.38
2019-02-18T00:12:05.011Z,99178.20
2019-02-18T00:14:34.600Z,99175.95
2019-02-18T00:17:04.451Z,99179.73
2019-02-18T00:19:34.000Z,99181.02
2019-02-18T00:22:05.085Z,99181.27
2019-02-18T00:24:34.708Z,99176.30
2019-02-18T00:27:04.285Z,99181.24
2019-02-18T00:29:33.871Z,99178.99
2019-02-18T00:32:03.470Z,99183.02
2019-02-18T00:34:38.673Z,99178.11
2019-02-18T00:37:08.257Z,99180.23
2019-02-18T00:39:37.995Z,99178.27
2019-02-18T00:42:07.559Z,99179.45
2019-02-18T00:44:37.117Z,99181.47
2019-02-18T00:47:06.864Z,99175.83
2019-02-18T00:49:37.933Z,99173.75
2019-02-18T00:52:07.509Z,99172.52
2019-02-18T00:54:37.079Z,99164.81
2019-02-18T00:57:06.668Z,99167.83
2019-02-18T00:59:36.251Z,99168.15
2019-02-18T01:02:05.872Z,99164.09
2019-02-18T01:04:35.405Z,99163.40
2019-02-18T01:07:05.200Z,99160.78
2019-02-18T01:09:34.766Z,99162.26
2019-02-18T01:12:04.419Z,99166.25
2019-02-18T01:14:33.981Z,99161.59
2019-02-18T01:17:03.569Z,99158.06
2019-02-18T01:19:33.150Z,99160.69
2019-02-18T01:22:02.712Z,99163.19
2019-02-18T01:24:32.308Z,99165.13
2019-02-18T01:27:01.958Z,99167.59
2019-02-18T01:29:31.549Z,99171.97
2019-02-18T01:32:01.116Z,99169.45
2019-02-18T01:34:30.707Z,99174.95
2019-02-18T01:37:00.311Z,99175.22
2019-02-18T01:39:30.037Z,99174.48
2019-02-18T01:41:59.597Z,99167.80
2019-02-18T01:44:29.324Z,99169.52
2019-02-18T01:46:58.932Z,99168.64
2019-02-18T01:49:28.496Z,99164.20
2019-02-18T01:51:58.076Z,99158.86
2019-02-18T01:54:27.663Z,99165.44
2019-02-18T01:56:57.216Z,99157.75
2019-02-18T01:59:26.800Z,99157.95
2019-02-18T02:01:56.376Z,99157.44
2019-02-18T02:04:25.939Z,99154.22
2019-02-18T02:06:55.523Z,99154.16
2019-02-18T02:09:25.437Z,99152.24
2019-02-18T02:11:55.008Z,99149.02
2019-02-18T02:14:24.568Z,99149.88
2019-02-18T02:16:54.337Z,99149.16
2019-02-18T02:19:23.924Z,99152.06
2019-02-18T02:21:53.538Z,99150.34
2019-02-18T02:24:22.969Z,99143.91
2019-02-18T02:27:11.834Z,99148.25
2019-02-18T02:30:00.735Z,99144.77
2019-02-18T02:32:30.314Z,99147.32
2019-02-18T02:34:59.907Z,99142.02
2019-02-18T02:37:48.792Z,99141.77
2019-02-18T02:40:18.349Z,99139.46
2019-02-18T02:42:48.088Z,99144.69
2019-02-18T02:45:17.673Z,99144.95
2019-02-18T02:47:47.316Z,99145.33
2019-02-18T02:50:16.867Z,99139.84
2019-02-18T02:52:46.483Z,99142.28
2019-02-18T02:55:16.061Z,99144.53
2019-02-18T02:57:45.711Z,99142.66
2019-02-18T03:00:16.663Z,99140.31
2019-02-18T03:03:05.499Z,99133.50
2019-02-18T03:05:35.112Z,99137.55
2019-02-18T03:08:04.718Z,99139.05
2019-02-18T03:10:34.284Z,99137.20
2019-02-18T03:13:04.363Z,99139.77
2019-02-18T03:15:34.690Z,99138.09
2019-02-18T03:18:05.729Z,99138.58
2019-02-18T03:20:35.348Z,99134.47
2019-02-18T03:23:04.920Z,99135.09
2019-02-18T03:25:34.586Z,99135.84
2019-02-18T03:28:08.628Z,99128.91
2019-02-18T03:33:19.745Z,99131.68
2019-02-18T03:35:49.320Z,99126.05
2019-02-18T03:38:18.909Z,99127.16
2019-02-18T03:40:48.552Z,99129.29
2019-02-18T03:43:18.348Z,99128.50
2019-02-18T03:45:47.939Z,99132.53
2019-02-18T03:48:20.374Z,99133.51
2019-02-18T03:50:50.509Z,99141.59
2019-02-18T03:53:20.065Z,99138.96
2019-02-18T03:55:49.994Z,99142.61
2019-02-18T03:58:19.756Z,99144.80
2019-02-18T04:00:49.804Z,99139.30
2019-02-18T04:03:20.018Z,99134.03
2019-02-18T04:05:49.611Z,99141.78
2019-02-18T04:08:19.173Z,99141.58
2019-02-18T04:10:48.789Z,99140.09
2019-02-18T04:13:18.404Z,99142.84
2019-02-18T04:15:48.926Z,99144.76
2019-02-18T04:18:18.530Z,99145.10
2019-02-18T04:20:48.113Z,99150.10
2019-02-18T04:23:17.699Z,99151.56
2019-02-18T04:25:47.379Z,99154.13
2019-02-18T04:28:16.964Z,99147.94
2019-02-18T04:30:46.530Z,99152.63
2019-02-18T04:33:16.154Z,99150.93
2019-02-18T04:35:45.737Z,99152.73
2019-02-18T04:38:15.326Z,99150.64
2019-02-18T04:40:44.927Z,99144.48
2019-02-18T04:43:14.505Z,99147.66
2019-02-18T04:45:44.085Z,99140.62
2019-02-18T04:48:14.124Z,99141.61
2019-02-18T04:51:02.994Z,99140.53
2019-02-18T04:53:32.557Z,99140.99
2019-02-18T04:56:02.121Z,99135.47
2019-02-18T04:58:31.721Z,99133.99
2019-02-18T05:01:02.978Z,99138.05
2019-02-18T05:03:32.729Z,99133.84
2019-02-18T05:06:05.111Z,99131.57
2019-02-18T05:08:35.150Z,99135.13
2019-02-18T05:11:04.798Z,99129.84
2019-02-18T05:13:34.361Z,99137.07
2019-02-18T05:16:05.346Z,99138.94
2019-02-18T05:18:34.907Z,99135.41
2019-02-18T05:21:04.498Z,99136.88
2019-02-18T05:23:34.184Z,99133.95
2019-02-18T05:26:03.739Z,99134.55
2019-02-18T05:28:33.317Z,99132.69
2019-02-18T05:31:03.042Z,99129.19
2019-02-18T05:33:32.553Z,99130.49
2019-02-18T05:36:07.820Z,99042.88
2019-02-18T05:38:37.576Z,99124.05
2019-02-18T05:41:07.231Z,99126.72
2019-02-18T05:43:36.809Z,99127.48
2019-02-18T05:46:08.649Z,99130.66
2019-02-18T05:48:37.773Z,99130.51
2019-02-18T05:51:07.363Z,99127.48
2019-02-18T05:53:36.975Z,99127.06
2019-02-18T05:56:06.605Z,99124.03
2019-02-18T05:58:36.216Z,99118.56
2019-02-18T06:01:05.836Z,99119.92
2019-02-18T06:03:35.405Z,99117.99
2019-02-18T06:06:05.099Z,99122.55
2019-02-18T06:08:34.669Z,99123.67
2019-02-18T06:11:04.241Z,99120.62
2019-02-18T06:13:33.955Z,99121.38
2019-02-18T06:16:03.745Z,99121.11
2019-02-18T06:18:33.299Z,99121.48
2019-02-18T06:21:02.960Z,99112.15
2019-02-18T06:23:32.621Z,99116.59
2019-02-18T06:26:02.177Z,99119.95
2019-02-18T06:28:31.839Z,99120.59
2019-02-18T06:31:01.480Z,99120.16
2019-02-18T06:33:32.638Z,99123.83
2019-02-18T06:36:02.240Z,99119.61
2019-02-18T06:38:31.839Z,99120.75
2019-02-18T06:41:01.439Z,99123.41
2019-02-18T06:43:31.044Z,99125.57
2019-02-18T06:46:02.261Z,99123.02
2019-02-18T06:48:33.738Z,99126.97
2019-02-18T06:51:03.370Z,99128.70
2019-02-18T06:53:33.067Z,99126.95
2019-02-18T06:56:02.638Z,99131.69
2019-02-18T06:58:33.828Z,99133.27
2019-02-18T07:01:05.405Z,99134.08
2019-02-18T07:03:36.550Z,99142.43
2019-02-18T07:06:07.705Z,99137.89
2019-02-18T07:08:38.917Z,99145.83
2019-02-18T07:11:10.089Z,99145.45
2019-02-18T07:13:39.704Z,99139.67
2019-02-18T07:16:09.356Z,99136.62
2019-02-18T07:18:38.945Z,99124.19
2019-02-18T07:21:08.509Z,99112.42
2019-02-18T07:23:38.099Z,99103.41
2019-02-18T07:26:07.729Z,99096.16
2019-02-18T07:28:37.317Z,99090.81
2019-02-18T07:31:06.942Z,99079.41
2019-02-18T07:33:36.523Z,99077.84
2019-02-18T07:36:06.207Z,99069.39
2019-02-18T07:38:35.864Z,99062.94
2019-02-18T07:41:05.556Z,99063.01
2019-02-18T07:43:35.178Z,99053.03
2019-02-18T07:46:04.929Z,99048.48
2019-02-18T07:48:36.708Z,99058.16
2019-02-18T07:51:05.803Z,99042.16
2019-02-18T07:53:35.411Z,99031.91
2019-02-18T07:56:04.973Z,99024.58
2019-02-18T07:58:34.575Z,99045.80
2019-02-18T08:01:04.411Z,99032.33
2019-02-18T08:03:34.013Z,99022.44
2019-02-18T08:06:03.612Z,99027.42
2019-02-18T08:08:33.232Z,99031.70
2019-02-18T08:11:02.831Z,99024.45
2019-02-18T08:13:32.727Z,99021.69
2019-02-18T08:16:02.444Z,99021.38
2019-02-18T08:18:32.125Z,99016.89
2019-02-18T08:21:01.730Z,99018.44
2019-02-18T08:23:31.336Z,99033.39
2019-02-18T08:26:00.945Z,99021.06
2019-02-18T08:28:30.500Z,99005.53
2019-02-18T08:31:00.115Z,99002.83
2019-02-18T08:33:29.704Z,99001.18
2019-02-18T08:35:59.315Z,98987.31
2019-02-18T08:38:28.978Z,98992.95
2019-02-18T08:40:58.551Z,98987.48
2019-02-18T08:43:28.128Z,98983.98
2019-02-18T08:45:57.720Z,98974.09
2019-02-18T08:48:27.312Z,98974.48
2019-02-18T08:50:56.982Z,98987.66
2019-02-18T08:53:26.578Z,98972.80
2019-02-18T08:55:56.149Z,98982.58
2019-02-18T08:58:25.716Z,98974.56
2019-02-18T09:01:02.228Z,98983.41
2019-02-18T09:03:32.759Z,98987.59
2019-02-18T09:06:02.369Z,98979.86
2019-02-18T09:08:31.975Z,98973.73
2019-02-18T09:11:01.555Z,98972.59
2019-02-18T09:13:31.491Z,98988.62
2019-02-18T09:16:01.079Z,98983.09
2019-02-18T09:18:30.809Z,98983.58
2019-02-18T09:21:00.439Z,98972.26
2019-02-18T09:23:31.607Z,98964.37
2019-02-18T09:26:01.376Z,98962.56
2019-02-18T09:28:30.962Z,98962.58
2019-02-18T09:31:00.673Z,98961.30
2019-02-18T09:33:30.244Z,98964.63
2019-02-18T09:35:59.848Z,98961.69
2019-02-18T09:38:29.425Z,98956.23
2019-02-18T09:40:59.022Z,98951.45
2019-02-18T09:43:28.648Z,98951.38
2019-02-18T09:45:58.241Z,98946.09
2019-02-18T09:48:27.879Z,98955.91
2019-02-18T09:50:59.929Z,98950.61
2019-02-18T09:53:28.844Z,98952.38
2019-02-18T09:55:58.442Z,98947.53
2019-02-18T09:58:28.074Z,98941.86
2019-02-18T10:00:57.631Z,98946.30
2019-02-18T10:03:32.421Z,98942.05
2019-02-18T10:06:02.126Z,98944.97
2019-02-18T10:08:32.157Z,98938.11
2019-02-18T10:11:01.725Z,98941.88
2019-02-18T10:13:31.406Z,98939.61
2019-02-18T10:16:01.022Z,98930.86
2019-02-18T10:18:30.485Z,98930.65
2019-02-18T10:21:01.277Z,98930.48
2019-02-18T10:23:30.863Z,98919.20
2019-02-18T10:26:00.566Z,98911.64
2019-02-18T10:28:30.338Z,98913.05
2019-02-18T10:30:59.893Z,98915.36
2019-02-18T10:33:29.521Z,98917.50
2019-02-18T10:35:59.142Z,98903.09
2019-02-18T10:38:28.712Z,98909.24
2019-02-18T10:41:06.613Z,98907.47
2019-02-18T10:43:32.402Z,98904.44
2019-02-18T10:46:01.183Z,98904.81
2019-02-18T10:48:30.754Z,98909.66
2019-02-18T10:51:00.351Z,98916.32
2019-02-18T10:53:29.938Z,98904.45
2019-02-18T10:55:59.503Z,98902.64
2019-02-18T10:58:29.135Z,98908.45
2019-02-18T11:00:58.863Z,98894.54
2019-02-18T11:03:28.455Z,98901.16
2019-02-18T11:05:58.034Z,98903.06
2019-02-18T11:08:27.604Z,98910.73
2019-02-18T11:10:57.182Z,98897.94
2019-02-18T11:13:26.799Z,98897.13
2019-02-18T11:15:56.406Z,98894.09
2019-02-18T11:18:26.021Z,98886.02
2019-02-18T11:20:55.818Z,98871.59
2019-02-18T11:23:25.861Z,98867.50
2019-02-18T11:25:55.444Z,98876.28
2019-02-18T11:28:25.042Z,98873.13
2019-02-18T11:30:54.649Z,98857.52
2019-02-18T11:33:24.241Z,98862.08
2019-02-18T11:35:53.879Z,98864.19
2019-02-18T11:38:23.616Z,98858.91
2019-02-18T11:40:53.323Z,98849.89
2019-02-18T11:43:22.910Z,98840.69
2019-02-18T11:45:52.517Z,98844.36
2019-02-18T11:48:22.102Z,98843.05
2019-02-18T11:50:52.158Z,98836.50
2019-02-18T11:53:21.737Z,98826.00
2019-02-18T11:55:51.335Z,98831.92
2019-02-18T11:58:20.937Z,98835.84
2019-02-18T12:00:50.573Z,98809.90
2019-02-18T12:03:20.137Z,98825.27
2019-02-18T12:05:49.925Z,98820.70
2019-02-18T12:08:19.497Z,98810.80
2019-02-18T12:10:49.099Z,98812.95
2019-02-18T12:13:18.697Z,98803.63
2019-02-18T12:15:48.296Z,98813.62
2019-02-18T12:18:17.879Z,98813.38
2019-02-18T12:20:48.137Z,98809.98
2019-02-18T12:23:17.718Z,98803.90
2019-02-18T12:25:47.288Z,98796.24
2019-02-18T12:28:16.869Z,98784.33
2019-02-18T12:30:47.695Z,98782.13
2019-02-18T12:33:17.300Z,98775.92
2019-02-18T12:35:47.221Z,98782.17
2019-02-18T12:38:17.483Z,98770.64
2019-02-18T12:40:47.344Z,98773.13
2019-02-18T12:43:16.946Z,98769.28
2019-02-18T12:45:46.544Z,98772.33
2019-02-18T12:48:16.206Z,98780.63
2019-02-18T12:50:45.810Z,98768.45
2019-02-18T12:53:15.502Z,98761.72
2019-02-18T12:55:45.110Z,98761.31
2019-02-18T12:58:14.704Z,98753.57
2019-02-18T13:00:44.306Z,98750.37
2019-02-18T13:03:13.977Z,98741.05
2019-02-18T13:05:44.088Z,98743.75
2019-02-18T13:08:32.958Z,98748.59
2019-02-18T13:11:02.572Z,98746.55
2019-02-18T13:13:32.158Z,98742.25
2019-02-18T13:16:01.918Z,98740.52
2019-02-18T13:18:31.991Z,98732.18
2019-02-18T13:21:01.557Z,98743.47
2019-02-18T13:23:31.154Z,98736.25
2019-02-18T13:26:00.798Z,98732.27
2019-02-18T13:28:30.615Z,98736.91
2019-02-18T13:31:00.183Z,98728.14
2019-02-18T13:33:29.765Z,98733.86
2019-02-18T13:35:59.352Z,98735.98
2019-02-18T13:38:28.938Z,98727.27
2019-02-18T13:40:58.515Z,98722.90
2019-02-18T13:43:28.106Z,98718.16
2019-02-18T13:45:57.763Z,98709.27
2019-02-18T13:48:27.756Z,98710.00
2019-02-18T13:50:57.342Z,98708.48
2019-02-18T13:53:26.921Z,98699.86
2019-02-18T13:55:56.508Z,98706.15
2019-02-18T13:58:26.088Z,98700.45
2019-02-18T14:00:55.727Z,98703.08
2019-02-18T14:03:25.714Z,98694.25
2019-02-18T14:05:55.268Z,98686.86
2019-02-18T14:08:24.865Z,98696.14
2019-02-18T14:10:54.718Z,98699.72
2019-02-18T14:13:24.373Z,98695.75
2019-02-18T14:15:54.032Z,98697.83
2019-02-18T14:18:23.922Z,98706.86
2019-02-18T14:20:53.484Z,98706.25
2019-02-18T14:23:23.086Z,98709.02
2019-02-18T14:25:52.668Z,98707.92
2019-02-18T14:28:22.233Z,98702.84
2019-02-18T14:30:51.830Z,98698.57
2019-02-18T14:33:21.719Z,98698.07
2019-02-18T14:35:51.304Z,98693.25
2019-02-18T14:38:20.868Z,98692.09
2019-02-18T14:40:50.448Z,98689.65
2019-02-18T14:43:20.048Z,98692.50
2019-02-18T14:45:49.700Z,98687.62
2019-02-18T14:48:19.205Z,98688.77
2019-02-18T14:50:56.539Z,98682.94
2019-02-18T14:53:20.349Z,98685.45
2019-02-18T14:55:49.974Z,98681.95
2019-02-18T14:58:21.939Z,98675.67
2019-02-18T15:00:51.772Z,98666.81
2019-02-18T15:03:21.565Z,98664.98
2019-02-18T15:05:51.230Z,98664.88
2019-02-18T15:08:20.781Z,98659.91
2019-02-18T15:10:50.377Z,98655.78
2019-02-18T15:13:19.978Z,98657.23
2019-02-18T15:15:49.426Z,98658.00
2019-02-18T15:18:18.998Z,98656.41
2019-02-18T15:20:48.624Z,98661.18
2019-02-18T15:23:18.199Z,98663.95
2019-02-18T15:25:48.161Z,98657.20
2019-02-18T15:28:17.829Z,98658.55
2019-02-18T15:30:47.447Z,98655.41
2019-02-18T15:33:17.117Z,98654.46
2019-02-18T15:35:46.779Z,98650.52
2019-02-18T15:38:16.427Z,98647.41
2019-02-18T15:40:46.029Z,98644.13
2019-02-18T15:43:15.971Z,98639.88
2019-02-18T15:45:45.574Z,98638.56
2019-02-18T15:48:15.366Z,98643.62
2019-02-18T15:50:44.920Z,98639.58
2019-02-18T15:53:14.538Z,98642.02
2019-02-18T15:55:44.656Z,98641.88
2019-02-18T15:58:14.637Z,98639.92
2019-02-18T16:00:44.222Z,98642.07
2019-02-18T16:03:13.830Z,98638.30
2019-02-18T16:05:43.412Z,98635.81
2019-02-18T16:08:12.967Z,98633.16
2019-02-18T16:10:42.577Z,98636.44
2019-02-18T16:13:12.211Z,98635.84
2019-02-18T16:15:41.778Z,98632.84
2019-02-18T16:18:11.395Z,98635.83
2019-02-18T16:20:42.353Z,98640.02
2019-02-18T16:23:12.083Z,98643.16
2019-02-18T16:25:44.647Z,98641.88
2019-02-18T16:28:14.230Z,98638.90
2019-02-18T16:30:43.859Z,98647.69
2019-02-18T16:33:13.475Z,98648.00
2019-02-18T16:35:43.392Z,98637.63
2019-02-18T16:38:12.994Z,98642.53
2019-02-18T16:40:42.601Z,98643.14
2019-02-18T16:43:12.183Z,98647.09
2019-02-18T16:45:41.779Z,98650.34
2019-02-18T16:48:11.755Z,98658.03
2019-02-18T16:50:41.340Z,98659.30
2019-02-18T16:53:10.923Z,98662.27
2019-02-18T16:55:40.556Z,98660.45
2019-02-18T16:58:10.143Z,98659.84
2019-02-18T17:00:39.767Z,98670.30
2019-02-18T17:03:09.715Z,98673.23
2019-02-18T17:05:39.298Z,98679.50
2019-02-18T17:08:08.913Z,98680.16
2019-02-18T17:10:38.460Z,98679.62
2019-02-18T17:13:08.603Z,98682.52
2019-02-18T17:15:38.405Z,98689.16
2019-02-18T17:18:08.053Z,98689.90
2019-02-18T17:20:37.595Z,98697.01
2019-02-18T17:23:07.188Z,98703.72
2019-02-18T17:25:36.795Z,98710.53
2019-02-18T17:28:06.345Z,98705.70
2019-02-18T17:30:35.915Z,98708.73
2019-02-18T17:33:05.676Z,98709.02
2019-02-18T17:35:35.327Z,98713.11
2019-02-18T17:38:05.160Z,98715.53
2019-02-18T17:40:34.770Z,98707.10
2019-02-18T17:43:04.499Z,98714.30
2019-02-18T17:45:34.148Z,98717.09
2019-02-18T17:48:03.760Z,98718.64
2019-02-18T17:50:33.392Z,98713.45
2019-02-18T17:53:03.332Z,98719.97
2019-02-18T17:55:33.030Z,98725.91
2019-02-18T17:58:02.615Z,98727.99
2019-02-18T18:00:33.721Z,98724.55
2019-02-18T18:03:03.797Z,98725.65
2019-02-18T18:05:33.398Z,98728.05
2019-02-18T18:08:03.696Z,98731.00
2019-02-18T18:10:33.315Z,98726.50
2019-02-18T18:13:02.906Z,98727.48
2019-02-18T18:15:32.460Z,98731.27
2019-02-18T18:18:02.035Z,98729.83
2019-02-18T18:20:31.603Z,98722.97
2019-02-18T18:23:01.173Z,98728.09
2019-02-18T18:25:30.819Z,98726.87
2019-02-18T18:28:00.408Z,98724.61
2019-02-18T18:30:29.969Z,98722.86
2019-02-18T18:32:59.573Z,98725.84
2019-02-18T18:35:29.691Z,98724.77
2019-02-18T18:37:59.249Z,98727.77
2019-02-18T18:40:29.196Z,98731.22
2019-02-18T18:42:58.772Z,98728.16
2019-02-18T18:45:28.349Z,98724.11
2019-02-18T18:47:57.968Z,98729.70
2019-02-18T18:50:27.988Z,98729.50
2019-02-18T18:52:57.560Z,98731.43
2019-02-18T18:55:27.171Z,98729.35
2019-02-18T18:57:56.728Z,98729.20
2019-02-18T19:00:26.915Z,98735.80
2019-02-18T19:02:56.537Z,98731.77
2019-02-18T19:05:26.106Z,98736.02
2019-02-18T19:07:55.690Z,98736.14
2019-02-18T19:10:25.258Z,98733.59
2019-02-18T19:12:54.809Z,98736.31
2019-02-18T19:15:24.393Z,98730.44
2019-02-18T19:17:54.452Z,98733.17
2019-02-18T19:20:23.994Z,98733.59
2019-02-18T19:22:53.571Z,98734.94
2019-02-18T19:25:23.436Z,98734.81
2019-02-18T19:27:53.013Z,98740.45
2019-02-18T19:30:27.076Z,98745.63
2019-02-18T19:32:56.658Z,98742.48
2019-02-18T19:35:26.242Z,98743.06
2019-02-18T19:37:55.799Z,98746.99
2019-02-18T19:40:25.393Z,98744.52
2019-02-18T19:42:54.807Z,98744.30
2019-02-18T19:45:25.775Z,98745.73
2019-02-18T19:47:55.380Z,98746.72
2019-02-18T19:50:24.922Z,98749.60
2019-02-18T19:52:54.471Z,98759.53
2019-02-18T19:55:25.439Z,98762.45
2019-02-18T19:57:55.105Z,98760.53
2019-02-18T20:00:24.731Z,98763.10
2019-02-18T20:02:54.768Z,98755.77
2019-02-18T20:05:24.346Z,98751.80
2019-02-18T20:07:53.920Z,98751.70
2019-02-18T20:10:23.555Z,98755.49
2019-02-18T20:12:53.482Z,98757.88
2019-02-18T20:15:23.035Z,98758.11
2019-02-18T20:17:52.630Z,98760.13
2019-02-18T20:20:25.167Z,98686.28
2019-02-18T20:22:54.719Z,98760.84
2019-02-18T20:25:24.351Z,98762.66
2019-02-18T20:27:53.927Z,98761.17
2019-02-18T20:30:23.500Z,98765.36
2019-02-18T20:32:53.091Z,98762.45
2019-02-18T20:35:22.676Z,98761.42
2019-02-18T20:37:52.224Z,98764.17
2019-02-18T20:40:22.303Z,98766.63
2019-02-18T20:42:51.846Z,98767.83
2019-02-18T20:45:21.406Z,98772.45
2019-02-18T20:47:52.092Z,98766.79
2019-02-18T20:50:21.644Z,98762.64
2019-02-18T20:52:51.199Z,98760.00
2019-02-18T20:55:21.071Z,98764.59
2019-02-18T20:57:50.648Z,98769.22
2019-02-18T21:00:20.872Z,98766.11
2019-02-18T21:02:50.611Z,98770.61
2019-02-18T21:05:20.191Z,98771.38
2019-02-18T21:07:49.757Z,98766.41
2019-02-18T21:10:21.561Z,98768.95
2019-02-18T21:12:51.220Z,98767.08
2019-02-18T21:15:20.797Z,98766.75
2019-02-18T21:17:50.491Z,98762.39
2019-02-18T21:20:20.053Z,98765.39
2019-02-18T21:22:49.974Z,98765.63
2019-02-18T21:25:19.566Z,98767.63
2019-02-18T21:27:49.145Z,98764.97
2019-02-18T21:30:19.455Z,98763.20
2019-02-18T21:32:49.076Z,98768.18
2019-02-18T21:35:18.630Z,98766.02
2019-02-18T21:37:48.177Z,98767.19
2019-02-18T21:40:17.789Z,98764.84
2019-02-18T21:42:47.380Z,98768.59
2019-02-18T21:45:17.464Z,98760.27
2019-02-18T21:47:47.040Z,98765.86
2019-02-18T21:50:19.391Z,98766.25
2019-02-18T21:52:49.085Z,98759.59
2019-02-18T21:55:19.791Z,98764.89
2019-02-18T21:57:49.364Z,98766.70
2019-02-18T22:00:23.189Z,98764.44
2019-02-18T22:02:52.797Z,98763.12
2019-02-18T22:05:22.411Z,98762.25
2019-02-18T22:07:51.996Z,98769.30
2019-02-18T22:10:21.634Z,98761.98
2019-02-18T22:12:51.212Z,98760.37
2019-02-18T22:15:20.783Z,98758.35
2019-02-18T22:17:50.386Z,98754.35
2019-02-18T22:20:20.870Z,98748.40
2019-02-18T22:22:50.605Z,98751.59
2019-02-18T22:25:20.171Z,98749.63
2019-02-18T22:27:49.721Z,98748.77
2019-02-18T22:30:19.284Z,98755.49
2019-02-18T22:32:48.893Z,98758.70
2019-02-18T22:35:18.721Z,98753.63
2019-02-18T22:37:49.772Z,98757.48
2019-02-18T22:40:19.393Z,98761.38
2019-02-18T22:42:48.948Z,98757.30
2019-02-18T22:45:18.529Z,98756.64
2019-02-18T22:47:48.088Z,98756.70
2019-02-18T22:50:18.027Z,98758.67
2019-02-18T22:52:47.584Z,98758.16
2019-02-18T22:55:17.207Z,98758.70
2019-02-18T22:57:46.776Z,98762.64
2019-02-18T23:00:22.082Z,98760.30
2019-02-18T23:02:51.930Z,98763.17
2019-02-18T23:05:29.347Z,98768.27
2019-02-18T23:07:58.891Z,98765.60
2019-02-18T23:10:28.471Z,98768.61
2019-02-18T23:12:58.042Z,98769.93
2019-02-18T23:15:27.624Z,98769.82
2019-02-18T23:17:57.575Z,98766.03
2019-02-18T23:20:27.136Z,98769.47
2019-02-18T23:22:56.717Z,98769.73
2019-02-18T23:25:29.235Z,98768.80
2019-02-18T23:28:00.310Z,98773.16
2019-02-18T23:30:29.892Z,98772.83
2019-02-18T23:32:59.467Z,98774.94
2019-02-18T23:35:29.057Z,98774.21
2019-02-18T23:37:58.631Z,98770.23
2019-02-18T23:40:28.214Z,98782.84
2019-02-18T23:42:57.775Z,98776.13
2019-02-18T23:45:27.327Z,98775.23
2019-02-18T23:47:56.896Z,98776.00
2019-02-18T23:50:26.495Z,98776.75
2019-02-18T23:52:56.069Z,98774.67
2019-02-18T23:55:25.626Z,98780.24
2019-02-18T23:57:55.207Z,98777.94
